Decoded Metar for LFST (STRASSBOURG in FRANCE) (IATA:SXB) | Meteo·Mobile Aviation Weather
aviador You're here:

LFST Decoded Metar

STRASSBOURG in FRANCE
Report Time2019-02-21 23:30:00
UTC Time2019-02-22 00:03:33
Flight Rules vfr VFR
WindVRB at 01 kt
Visibility8000 m
Phenomena:N/A
Clouds:Broken 047 Hf
Broken 058 Hf
Broken 072 Hf
Expected CloudBase > 800 ft AGL from Temp-Dew spread
Ceiling4,700 ft
Temp07°C (ISA -7)
Dew Point05°C (87% RH)
AAT5.5°C
QNH1031 hPa
Density Alt-823 ft
Elevation505 ft
Report Wrong Elevation
Raw Report
LFST 212330Z AUTO VRB01KT 8000 BKN047 BKN058 BKN072 07/05 Q1031
NOSIG=

Extra information for LFST:More info

Metar Taf Metar & Taf Last 4 Metars F.Rules Stats Wind Profile Meteogram Temp Stats Airport Information Weather charts Add Link Nearby VenuesMetar ALERT Operation Metar Decoded Social comments